createdAt,value
2018-06-25T00:00:40.436Z,7.10
2018-06-25T00:03:09.549Z,6.90
2018-06-25T00:05:38.638Z,7.30
2018-06-25T00:08:07.744Z,6.90
2018-06-25T00:10:36.838Z,7.27
2018-06-25T00:13:06.297Z,7.80
2018-06-25T00:15:35.709Z,7.10
2018-06-25T00:18:05.553Z,6.87
2018-06-25T00:20:34.649Z,7.07
2018-06-25T00:23:03.753Z,6.97
2018-06-25T00:25:32.853Z,7.17
2018-06-25T00:28:01.958Z,7.37
2018-06-25T00:30:31.082Z,6.30
2018-06-25T00:33:00.175Z,6.63
2018-06-25T00:35:29.287Z,6.13
2018-06-25T00:37:58.405Z,7.27
2018-06-25T00:40:27.498Z,6.60
2018-06-25T00:42:58.817Z,8.67
2018-06-25T00:45:28.850Z,7.27
2018-06-25T00:47:58.386Z,5.53
2018-06-25T00:50:27.717Z,5.67
2018-06-25T00:52:56.814Z,6.20
2018-06-25T00:55:25.942Z,6.07
2018-06-25T00:57:55.022Z,6.57
2018-06-25T01:00:24.229Z,6.00
2018-06-25T01:02:53.305Z,5.60
2018-06-25T01:05:22.420Z,5.00
2018-06-25T01:07:51.513Z,5.30
2018-06-25T01:10:20.610Z,6.47
2018-06-25T01:12:49.693Z,6.53
2018-06-25T01:15:18.801Z,7.23
2018-06-25T01:17:47.903Z,7.93
2018-06-25T01:20:17.033Z,9.47
2018-06-25T01:22:46.153Z,9.67
2018-06-25T01:25:15.253Z,9.27
2018-06-25T01:27:44.426Z,10.67
2018-06-25T01:30:13.573Z,11.07
2018-06-25T01:32:42.766Z,11.40
2018-06-25T01:35:11.901Z,11.17
2018-06-25T01:37:41.063Z,11.30
2018-06-25T01:40:10.150Z,12.40
2018-06-25T01:42:39.277Z,11.37
2018-06-25T01:45:08.406Z,10.37
2018-06-25T01:47:37.533Z,12.33
2018-06-25T01:50:06.704Z,12.30
2018-06-25T01:52:35.830Z,12.67
2018-06-25T01:55:04.962Z,12.57
2018-06-25T01:57:34.085Z,12.40
2018-06-25T02:00:03.287Z,12.80
2018-06-25T02:02:33.182Z,12.57
2018-06-25T02:05:02.334Z,11.60
2018-06-25T02:07:31.556Z,11.57
2018-06-25T02:10:00.661Z,11.27
2018-06-25T02:12:29.753Z,9.60
2018-06-25T02:14:58.873Z,9.90
2018-06-25T02:17:28.125Z,9.40
2018-06-25T02:19:57.271Z,8.50
2018-06-25T02:22:26.426Z,9.23
2018-06-25T02:24:55.669Z,8.77
2018-06-25T02:27:24.791Z,7.97
2018-06-25T02:29:55.426Z,8.23
2018-06-25T02:32:24.535Z,9.17
2018-06-25T02:34:53.622Z,9.03
2018-06-25T02:37:22.729Z,9.60
2018-06-25T02:39:51.834Z,9.07
2018-06-25T02:42:20.986Z,9.07
2018-06-25T02:44:50.071Z,9.27
2018-06-25T02:47:19.173Z,8.30
2018-06-25T02:49:48.301Z,8.63
2018-06-25T02:52:17.430Z,8.07
2018-06-25T02:54:46.526Z,8.90
2018-06-25T02:57:15.630Z,8.17
2018-06-25T02:59:44.794Z,8.33
2018-06-25T03:02:13.906Z,10.43
2018-06-25T03:04:43.025Z,9.43
2018-06-25T03:07:12.130Z,9.03
2018-06-25T03:09:41.221Z,8.93
2018-06-25T03:12:10.358Z,10.30
2018-06-25T03:14:39.734Z,9.27
2018-06-25T03:17:08.834Z,8.87
2018-06-25T03:19:37.929Z,10.10
2018-06-25T03:22:07.030Z,10.13
2018-06-25T03:24:36.161Z,10.57
2018-06-25T03:27:05.267Z,10.03
2018-06-25T03:29:34.374Z,10.07
2018-06-25T03:32:03.478Z,10.00
2018-06-25T03:34:32.655Z,10.13
2018-06-25T03:37:01.770Z,10.20
2018-06-25T03:39:30.885Z,9.07
2018-06-25T03:41:59.988Z,10.13
2018-06-25T03:44:29.089Z,9.17
2018-06-25T03:46:58.243Z,8.80
2018-06-25T03:49:27.397Z,8.80
2018-06-25T03:51:56.686Z,9.30
2018-06-25T03:54:26.118Z,8.63
2018-06-25T03:56:55.316Z,8.83
2018-06-25T03:59:24.404Z,8.83
2018-06-25T04:01:53.540Z,8.33
2018-06-25T04:04:22.757Z,8.83
2018-06-25T04:06:51.909Z,7.80
2018-06-25T04:09:20.993Z,9.53
2018-06-25T04:11:50.093Z,9.90
2018-06-25T04:14:19.185Z,9.07
2018-06-25T04:16:48.286Z,9.67
2018-06-25T04:19:17.389Z,10.07
2018-06-25T04:21:47.889Z,9.77
2018-06-25T04:24:17.090Z,9.03
2018-06-25T04:26:46.198Z,9.07
2018-06-25T04:29:15.281Z,9.17
2018-06-25T04:31:44.417Z,8.63
2018-06-25T04:34:13.538Z,9.37
2018-06-25T04:36:42.629Z,9.50
2018-06-25T04:39:11.793Z,9.97
2018-06-25T04:41:46.706Z,9.20
2018-06-25T04:44:15.829Z,9.83
2018-06-25T04:46:44.954Z,9.60
2018-06-25T04:49:14.057Z,9.70
2018-06-25T04:51:43.141Z,9.23
2018-06-25T04:54:12.247Z,9.30
2018-06-25T04:56:41.366Z,9.43
2018-06-25T04:59:10.583Z,9.47
2018-06-25T05:01:39.705Z,9.47
2018-06-25T05:04:08.890Z,10.17
2018-06-25T05:06:38.010Z,9.50
2018-06-25T05:09:08.737Z,10.63
2018-06-25T05:11:37.842Z,8.83
2018-06-25T05:14:06.965Z,8.90
2018-06-25T05:16:36.081Z,10.23
2018-06-25T05:19:05.330Z,9.33
2018-06-25T05:21:34.469Z,8.63
2018-06-25T05:24:03.610Z,9.53
2018-06-25T05:26:32.729Z,9.13
2018-06-25T05:29:01.829Z,7.80
2018-06-25T05:31:30.969Z,9.10
2018-06-25T05:34:00.065Z,8.53
2018-06-25T05:36:29.218Z,10.03
2018-06-25T05:38:58.321Z,8.27
2018-06-25T05:41:27.433Z,9.50
2018-06-25T05:43:56.574Z,9.30
2018-06-25T05:46:25.746Z,11.27
2018-06-25T05:48:55.218Z,10.60
2018-06-25T05:51:24.321Z,11.37
2018-06-25T05:53:56.758Z,14.23
2018-06-25T05:56:25.885Z,16.03
2018-06-25T05:58:55.518Z,16.07
2018-06-25T06:01:24.694Z,16.37
2018-06-25T06:03:53.813Z,17.43
2018-06-25T06:06:23.293Z,17.20
2018-06-25T06:08:52.427Z,16.93
2018-06-25T06:11:21.854Z,17.37
2018-06-25T06:13:51.063Z,15.43
2018-06-25T06:16:20.193Z,16.03
2018-06-25T06:18:49.421Z,15.20
2018-06-25T06:21:18.814Z,16.67
2018-06-25T06:23:47.941Z,15.67
2018-06-25T06:26:17.064Z,15.93
2018-06-25T06:28:46.185Z,15.37
2018-06-25T06:31:15.314Z,14.13
2018-06-25T06:33:44.436Z,15.70
2018-06-25T06:36:13.549Z,15.10
2018-06-25T06:38:42.980Z,14.93
2018-06-25T06:41:12.077Z,14.10
2018-06-25T06:43:41.206Z,14.17
2018-06-25T06:46:10.356Z,13.93
2018-06-25T06:48:39.507Z,13.27
2018-06-25T06:51:08.653Z,13.63
2018-06-25T06:53:37.781Z,14.57
2018-06-25T06:56:06.929Z,14.00
2018-06-25T06:58:36.077Z,15.70
2018-06-25T07:01:05.224Z,14.37
2018-06-25T07:03:34.346Z,13.63
2018-06-25T07:06:03.498Z,12.77
2018-06-25T07:08:32.644Z,13.37
2018-06-25T07:11:01.806Z,15.10
2018-06-25T07:13:30.910Z,13.73
2018-06-25T07:16:00.033Z,13.77
2018-06-25T07:18:29.134Z,13.00
2018-06-25T07:20:58.265Z,11.63
2018-06-25T07:23:27.385Z,11.97
2018-06-25T07:25:56.534Z,11.13
2018-06-25T07:28:25.658Z,10.87
2018-06-25T07:30:54.815Z,12.10
2018-06-25T07:33:23.997Z,11.03
2018-06-25T07:35:53.122Z,11.30
2018-06-25T07:38:22.265Z,11.60
2018-06-25T07:40:51.377Z,11.33
2018-06-25T07:43:20.481Z,9.60
2018-06-25T07:45:49.605Z,9.33
2018-06-25T07:48:18.704Z,8.97
2018-06-25T07:50:47.874Z,9.27
2018-06-25T07:53:16.997Z,9.00
2018-06-25T07:55:46.081Z,9.53
2018-06-25T07:58:15.205Z,10.30
2018-06-25T08:00:44.333Z,10.43
2018-06-25T08:03:13.448Z,10.07
2018-06-25T08:05:42.559Z,10.53
2018-06-25T08:08:11.858Z,9.23
2018-06-25T08:10:41.022Z,9.13
2018-06-25T08:13:10.141Z,8.80
2018-06-25T08:15:39.244Z,8.70
2018-06-25T08:18:08.336Z,9.50
2018-06-25T08:20:37.486Z,9.37
2018-06-25T08:23:06.602Z,9.77
2018-06-25T08:25:35.702Z,9.40
2018-06-25T08:28:04.849Z,8.97
2018-06-25T08:30:33.981Z,10.10
2018-06-25T08:33:03.162Z,9.47
2018-06-25T08:35:32.271Z,9.20
2018-06-25T08:38:01.401Z,8.73
2018-06-25T08:40:30.521Z,8.53
2018-06-25T08:42:59.669Z,8.37
2018-06-25T08:45:28.818Z,9.40
2018-06-25T08:47:57.981Z,8.67
2018-06-25T08:50:27.117Z,8.63
2018-06-25T08:52:56.247Z,8.40
2018-06-25T08:55:25.386Z,8.87
2018-06-25T08:57:54.533Z,8.33
2018-06-25T09:00:23.617Z,7.43
2018-06-25T09:02:52.740Z,8.97
2018-06-25T09:05:21.843Z,8.13
2018-06-25T09:07:50.958Z,8.87
2018-06-25T09:10:20.089Z,8.30
2018-06-25T09:12:49.222Z,7.30
2018-06-25T09:15:18.385Z,7.10
2018-06-25T09:17:47.450Z,7.50
2018-06-25T09:20:16.565Z,7.63
2018-06-25T09:22:45.697Z,8.77
2018-06-25T09:25:14.830Z,8.67
2018-06-25T09:27:48.965Z,7.80
2018-06-25T09:30:19.329Z,8.13
2018-06-25T09:32:48.476Z,8.10
2018-06-25T09:35:17.611Z,8.07
2018-06-25T09:37:46.696Z,7.97
2018-06-25T09:40:15.861Z,8.13
2018-06-25T09:42:44.958Z,8.83
2018-06-25T09:45:14.086Z,9.30
2018-06-25T09:47:43.201Z,8.60
2018-06-25T09:50:12.333Z,8.63
2018-06-25T09:52:41.481Z,9.67
2018-06-25T09:55:10.623Z,8.63
2018-06-25T09:57:39.713Z,8.83
2018-06-25T10:00:08.845Z,8.83
2018-06-25T10:02:37.933Z,8.30
2018-06-25T10:05:07.062Z,8.10
2018-06-25T10:07:36.170Z,8.00
2018-06-25T10:10:05.248Z,8.07
2018-06-25T10:12:34.359Z,7.60
2018-06-25T10:15:03.522Z,7.97
2018-06-25T10:17:32.646Z,7.50
2018-06-25T10:20:01.750Z,7.43
2018-06-25T10:22:30.866Z,8.00
2018-06-25T10:24:59.993Z,7.30
2018-06-25T10:27:29.094Z,7.70
2018-06-25T10:29:58.221Z,7.60
2018-06-25T10:32:27.333Z,7.90
2018-06-25T10:34:56.577Z,7.73
2018-06-25T10:37:25.710Z,8.07
2018-06-25T10:39:54.809Z,7.97
2018-06-25T10:42:24.024Z,7.97
2018-06-25T10:44:53.363Z,9.50
2018-06-25T10:47:22.470Z,8.60
2018-06-25T10:49:51.601Z,8.57
2018-06-25T10:52:20.726Z,9.00
2018-06-25T10:54:49.861Z,8.63
2018-06-25T10:57:18.989Z,8.73
2018-06-25T10:59:48.196Z,9.30
2018-06-25T11:02:17.202Z,9.33
2018-06-25T11:04:46.311Z,8.90
2018-06-25T11:07:15.532Z,9.43
2018-06-25T11:09:44.543Z,9.17
2018-06-25T11:12:13.665Z,7.80
2018-06-25T11:14:42.818Z,7.47
2018-06-25T11:17:11.930Z,7.87
2018-06-25T11:19:41.067Z,7.83
2018-06-25T11:22:10.185Z,8.07
2018-06-25T11:24:39.298Z,8.40
2018-06-25T11:27:08.534Z,8.87
2018-06-25T11:29:37.550Z,10.23
2018-06-25T11:32:06.673Z,9.60
2018-06-25T11:34:35.800Z,10.13
2018-06-25T11:37:04.974Z,8.83
2018-06-25T11:39:34.086Z,8.40
2018-06-25T11:42:03.215Z,7.60
2018-06-25T11:44:32.330Z,8.37
2018-06-25T11:47:01.429Z,7.20
2018-06-25T11:49:30.529Z,8.03
2018-06-25T11:51:59.630Z,8.00
2018-06-25T11:54:28.747Z,7.00
2018-06-25T11:56:57.848Z,9.23
2018-06-25T11:59:27.029Z,9.40
2018-06-25T12:01:56.215Z,10.33
2018-06-25T12:04:25.264Z,10.10
2018-06-25T12:06:54.365Z,9.33
2018-06-25T12:09:23.487Z,8.60
2018-06-25T12:11:52.583Z,9.83
2018-06-25T12:14:21.717Z,11.83
2018-06-25T12:16:50.829Z,12.67
2018-06-25T12:19:19.967Z,13.43
2018-06-25T12:21:49.065Z,14.20
2018-06-25T12:24:18.165Z,15.93
2018-06-25T12:26:47.261Z,15.27
2018-06-25T12:29:16.365Z,17.27
2018-06-25T12:31:45.478Z,17.17
2018-06-25T12:34:14.869Z,16.73
2018-06-25T12:36:44.050Z,17.70
2018-06-25T12:39:13.157Z,16.90
2018-06-25T12:41:42.282Z,17.43
2018-06-25T12:44:11.421Z,16.73
2018-06-25T12:46:40.526Z,16.60
2018-06-25T12:49:09.654Z,17.47
2018-06-25T12:51:38.785Z,16.40
2018-06-25T12:54:07.946Z,16.07
2018-06-25T12:56:37.045Z,16.47
2018-06-25T12:59:06.169Z,14.43
2018-06-25T13:01:35.333Z,16.37
2018-06-25T13:04:04.396Z,14.23
2018-06-25T13:06:33.517Z,15.90
2018-06-25T13:09:02.699Z,15.57
2018-06-25T13:11:31.878Z,15.13
2018-06-25T13:14:00.985Z,15.60
2018-06-25T13:16:30.124Z,14.80
2018-06-25T13:18:59.253Z,15.20
2018-06-25T13:21:28.398Z,14.93
2018-06-25T13:23:57.593Z,14.57
2018-06-25T13:26:26.738Z,13.60
2018-06-25T13:28:55.897Z,13.87
2018-06-25T13:31:25.806Z,12.73
2018-06-25T13:33:54.983Z,12.57
2018-06-25T13:36:24.106Z,13.50
2018-06-25T13:38:53.225Z,14.07
2018-06-25T13:41:22.382Z,16.50
2018-06-25T13:43:51.489Z,16.80
2018-06-25T13:46:20.601Z,17.33
2018-06-25T13:48:49.721Z,16.53
2018-06-25T13:51:18.994Z,15.43
2018-06-25T13:53:48.217Z,13.40
2018-06-25T13:56:17.339Z,13.97
2018-06-25T13:58:46.477Z,13.87
2018-06-25T14:01:15.615Z,12.50
2018-06-25T14:03:44.753Z,12.93
2018-06-25T14:06:13.845Z,13.67
2018-06-25T14:08:42.977Z,14.57
2018-06-25T14:11:12.393Z,14.03
2018-06-25T14:13:41.505Z,16.33
2018-06-25T14:16:10.645Z,18.00
2018-06-25T14:18:39.789Z,17.93
2018-06-25T14:21:08.966Z,18.93
2018-06-25T14:23:41.880Z,19.63
2018-06-25T14:26:11.121Z,19.23
2018-06-25T14:28:40.233Z,18.30
2018-06-25T14:31:14.781Z,18.40
2018-06-25T14:33:48.314Z,18.47
2018-06-25T14:36:17.493Z,17.87
2018-06-25T14:38:46.626Z,18.37
2018-06-25T14:41:15.749Z,18.97
2018-06-25T14:43:44.852Z,20.10
2018-06-25T14:46:13.997Z,17.53
2018-06-25T14:48:43.185Z,16.77
2018-06-25T14:51:12.318Z,19.33
2018-06-25T14:53:41.445Z,18.40
2018-06-25T14:56:10.554Z,17.10
2018-06-25T14:58:39.685Z,16.27
2018-06-25T15:01:08.781Z,17.53
2018-06-25T15:03:39.149Z,17.63
2018-06-25T15:06:08.273Z,15.60
2018-06-25T15:08:37.369Z,16.57
2018-06-25T15:11:06.781Z,14.17
2018-06-25T15:13:35.881Z,13.43
2018-06-25T15:16:05.270Z,14.80
2018-06-25T15:18:34.362Z,12.53
2018-06-25T15:21:03.496Z,11.63
2018-06-25T15:23:31.612Z,11.53
2018-06-25T15:26:01.574Z,11.63
2018-06-25T15:28:30.694Z,8.80
2018-06-25T15:30:59.797Z,8.40
2018-06-25T15:33:28.913Z,7.03
2018-06-25T15:35:58.069Z,7.43
2018-06-25T15:38:28.261Z,6.87
2018-06-25T15:40:57.653Z,6.03
2018-06-25T15:43:26.737Z,5.43
2018-06-25T15:45:55.845Z,5.53
2018-06-25T15:48:24.938Z,4.87
2018-06-25T15:50:54.052Z,4.60
2018-06-25T15:53:23.150Z,4.80
2018-06-25T15:55:52.288Z,4.23
2018-06-25T15:58:21.366Z,4.10
2018-06-25T16:00:50.449Z,3.87
2018-06-25T16:03:19.570Z,4.60
2018-06-25T16:05:48.674Z,4.60
2018-06-25T16:08:17.769Z,4.30
2018-06-25T16:10:46.856Z,4.10
2018-06-25T16:13:16.104Z,4.23
2018-06-25T16:15:45.266Z,3.50
2018-06-25T16:18:14.393Z,3.63
2018-06-25T16:20:43.577Z,3.50
2018-06-25T16:23:12.741Z,4.27
2018-06-25T16:25:41.878Z,3.90
2018-06-25T16:28:11.013Z,3.93
2018-06-25T16:30:40.122Z,3.90
2018-06-25T16:33:09.213Z,3.83
2018-06-25T16:35:38.419Z,3.80
2018-06-25T16:38:07.573Z,3.67
2018-06-25T16:40:36.720Z,4.47
2018-06-25T16:43:07.829Z,3.87
2018-06-25T16:45:36.949Z,3.53
2018-06-25T16:48:06.102Z,3.80
2018-06-25T16:50:35.207Z,4.07
2018-06-25T16:53:04.321Z,4.00
2018-06-25T16:55:33.469Z,4.20
2018-06-25T16:58:02.537Z,4.10
2018-06-25T17:00:31.698Z,4.00
2018-06-25T17:03:00.793Z,3.80
2018-06-25T17:05:29.917Z,4.20
2018-06-25T17:07:59.059Z,3.80
2018-06-25T17:10:28.190Z,3.93
2018-06-25T17:12:57.418Z,4.10
2018-06-25T17:15:26.542Z,4.33
2018-06-25T17:17:55.690Z,3.80
2018-06-25T17:20:24.868Z,4.10
2018-06-25T17:22:53.966Z,3.87
2018-06-25T17:25:23.117Z,4.00
2018-06-25T17:27:52.293Z,3.70
2018-06-25T17:30:21.397Z,3.60
2018-06-25T17:32:50.515Z,3.60
2018-06-25T17:35:19.601Z,3.50
2018-06-25T17:37:48.745Z,3.57
2018-06-25T17:40:18.038Z,4.57
2018-06-25T17:42:47.289Z,4.57
2018-06-25T17:45:16.393Z,4.43
2018-06-25T17:47:45.524Z,4.67
2018-06-25T17:50:14.649Z,5.37
2018-06-25T17:52:43.760Z,4.50
2018-06-25T17:55:12.949Z,4.80
2018-06-25T17:57:42.046Z,4.60
2018-06-25T18:00:11.189Z,5.20
2018-06-25T18:02:40.364Z,5.00
2018-06-25T18:05:09.461Z,4.53
2018-06-25T18:07:38.585Z,4.50
2018-06-25T18:10:07.734Z,5.63
2018-06-25T18:12:36.853Z,4.73
2018-06-25T18:15:06.186Z,4.90
2018-06-25T18:17:35.345Z,4.43
2018-06-25T18:20:04.841Z,4.63
2018-06-25T18:22:33.969Z,4.70
2018-06-25T18:25:03.217Z,4.90
2018-06-25T18:27:32.436Z,4.60
2018-06-25T18:30:02.652Z,4.37
2018-06-25T18:32:31.753Z,4.70
2018-06-25T18:35:00.861Z,4.67
2018-06-25T18:37:29.973Z,3.67
2018-06-25T18:39:59.090Z,4.80
2018-06-25T18:42:28.205Z,4.43
2018-06-25T18:44:57.319Z,4.30
2018-06-25T18:47:26.493Z,4.53
2018-06-25T18:49:55.566Z,4.43
2018-06-25T18:52:25.095Z,4.60
2018-06-25T18:54:54.374Z,4.50
2018-06-25T18:57:22.684Z,4.00
2018-06-25T18:59:51.709Z,4.07
2018-06-25T19:02:20.813Z,4.17
2018-06-25T19:04:49.922Z,4.07
2018-06-25T19:07:20.129Z,3.90
2018-06-25T19:09:49.539Z,4.47
2018-06-25T19:12:18.669Z,3.93
2018-06-25T19:14:47.825Z,4.73
2018-06-25T19:17:17.018Z,4.10
2018-06-25T19:19:46.217Z,4.50
2018-06-25T19:22:15.579Z,4.30
2018-06-25T19:24:44.710Z,4.63
2018-06-25T19:27:13.821Z,5.03
2018-06-25T19:29:42.980Z,4.60
2018-06-25T19:32:12.082Z,4.53
2018-06-25T19:34:41.400Z,4.77
2018-06-25T19:37:10.783Z,5.03
2018-06-25T19:39:40.370Z,4.70
2018-06-25T19:42:09.533Z,4.03
2018-06-25T19:44:39.198Z,5.00
2018-06-25T19:47:08.434Z,4.60
2018-06-25T19:49:37.568Z,4.63
2018-06-25T19:52:06.682Z,4.70
2018-06-25T19:54:36.329Z,5.40
2018-06-25T19:57:05.449Z,4.87
2018-06-25T19:59:34.614Z,4.50
2018-06-25T20:02:03.701Z,5.20
2018-06-25T20:04:32.874Z,4.60
2018-06-25T20:07:02.057Z,5.40
2018-06-25T20:09:31.153Z,5.13
2018-06-25T20:12:00.529Z,5.33
2018-06-25T20:14:29.651Z,4.90
2018-06-25T20:16:58.749Z,5.33
2018-06-25T20:19:27.872Z,5.20
2018-06-25T20:21:59.289Z,5.07
2018-06-25T20:24:28.397Z,4.47
2018-06-25T20:26:57.498Z,4.63
2018-06-25T20:29:26.614Z,4.10
2018-06-25T20:31:55.798Z,4.60
2018-06-25T20:34:25.385Z,4.80
2018-06-25T20:36:54.786Z,4.60
2018-06-25T20:39:23.893Z,4.40
2018-06-25T20:41:53.007Z,4.33
2018-06-25T20:44:24.141Z,4.73
2018-06-25T20:46:53.386Z,4.43
2018-06-25T20:49:22.444Z,4.73
2018-06-25T20:51:57.497Z,4.93
2018-06-25T20:54:27.409Z,5.10
2018-06-25T20:56:56.590Z,5.50
2018-06-25T20:59:25.667Z,4.57
2018-06-25T21:01:54.805Z,5.20
2018-06-25T21:04:23.914Z,5.30
2018-06-25T21:06:53.002Z,5.73
2018-06-25T21:09:22.128Z,5.40
2018-06-25T21:11:51.293Z,4.90
2018-06-25T21:14:20.413Z,5.70
2018-06-25T21:16:49.558Z,5.70
2018-06-25T21:19:18.726Z,6.07
2018-06-25T21:21:47.862Z,5.77
2018-06-25T21:24:17.028Z,5.07
2018-06-25T21:26:46.101Z,5.67
2018-06-25T21:29:15.238Z,5.77
2018-06-25T21:31:45.013Z,5.30
2018-06-25T21:34:14.185Z,5.20
2018-06-25T21:36:43.360Z,5.17
2018-06-25T21:39:12.921Z,5.00
2018-06-25T21:41:42.069Z,5.30
2018-06-25T21:44:11.221Z,5.23
2018-06-25T21:46:40.322Z,6.00
2018-06-25T21:49:09.458Z,5.30
2018-06-25T21:51:38.645Z,5.87
2018-06-25T21:54:07.745Z,6.33
2018-06-25T21:56:36.894Z,5.30
2018-06-25T21:59:05.989Z,5.20
2018-06-25T22:01:35.190Z,5.00
2018-06-25T22:04:04.341Z,6.00
2018-06-25T22:06:33.470Z,6.07
2018-06-25T22:09:02.561Z,5.53
2018-06-25T22:11:31.666Z,5.33
2018-06-25T22:14:00.780Z,5.77
2018-06-25T22:16:29.865Z,5.10
2018-06-25T22:18:59.006Z,5.17
2018-06-25T22:21:28.110Z,5.20
2018-06-25T22:23:57.221Z,5.07
2018-06-25T22:26:26.338Z,5.80
2018-06-25T22:28:55.441Z,5.57
2018-06-25T22:31:24.637Z,6.47
2018-06-25T22:33:53.746Z,6.33
2018-06-25T22:36:22.997Z,5.30
2018-06-25T22:38:52.154Z,5.70
2018-06-25T22:41:22.149Z,5.60
2018-06-25T22:43:51.530Z,5.80
2018-06-25T22:46:20.665Z,5.87
2018-06-25T22:48:49.758Z,5.30
2018-06-25T22:51:18.897Z,5.30
2018-06-25T22:53:48.005Z,5.80
2018-06-25T22:56:17.129Z,6.07
2018-06-25T22:58:46.285Z,5.23
2018-06-25T23:01:15.635Z,5.43
2018-06-25T23:03:45.631Z,5.57
2018-06-25T23:06:14.693Z,4.97
2018-06-25T23:08:43.866Z,6.43
2018-06-25T23:11:13.210Z,5.10
2018-06-25T23:13:42.321Z,5.30
2018-06-25T23:16:11.417Z,6.03
2018-06-25T23:18:40.531Z,5.63
2018-06-25T23:21:09.649Z,5.87
2018-06-25T23:23:38.746Z,5.70
2018-06-25T23:26:08.242Z,5.20
2018-06-25T23:28:37.337Z,5.37
2018-06-25T23:31:06.457Z,4.90
2018-06-25T23:33:35.582Z,4.73
2018-06-25T23:36:04.741Z,4.80
2018-06-25T23:38:33.877Z,5.00
2018-06-25T23:41:02.966Z,5.00
2018-06-25T23:43:32.130Z,4.97
2018-06-25T23:46:01.225Z,5.03
2018-06-25T23:48:30.586Z,5.30
2018-06-25T23:50:59.694Z,5.17
2018-06-25T23:53:28.800Z,5.70
2018-06-25T23:55:58.022Z,5.73
2018-06-25T23:58:27.117Z,5.83
